sensor_id;sensor_type;location;lat;lon;timestamp;temperature;humidity
48604;DHT22;32708;51.212;6.788;2023-04-05T00:01:49;6.30;99.90
48604;DHT22;32708;51.212;6.788;2023-04-05T00:04:18;6.30;99.90
48604;DHT22;32708;51.212;6.788;2023-04-05T00:06:48;6.10;29.20
48604;DHT22;32708;51.212;6.788;2023-04-05T00:09:18;6.40;62.80
48604;DHT22;32708;51.212;6.788;2023-04-05T00:11:46;6.10;99.90
48604;DHT22;32708;51.212;6.788;2023-04-05T00:14:12;6.20;99.90
48604;DHT22;32708;51.212;6.788;2023-04-05T00:16:38;6.30;99.90
48604;DHT22;32708;51.212;6.788;2023-04-05T00:19:05;6.30;99.90
48604;DHT22;32708;51.212;6.788;2023-04-05T00:21:31;6.20;99.90
48604;DHT22;32708;51.212;6.788;2023-04-05T00:23:58;6.20;99.90
48604;DHT22;32708;51.212;6.788;2023-04-05T00:26:28;6.10;1.00
48604;DHT22;32708;51.212;6.788;2023-04-05T00:28:56;6.20;1.00
48604;DHT22;32708;51.212;6.788;2023-04-05T00:31:22;6.00;99.90
48604;DHT22;32708;51.212;6.788;2023-04-05T00:33:48;6.00;64.80
48604;DHT22;32708;51.212;6.788;2023-04-05T00:36:17;6.10;1.00
48604;DHT22;32708;51.212;6.788;2023-04-05T00:38:45;6.00;99.90
48604;DHT22;32708;51.212;6.788;2023-04-05T00:41:12;6.10;94.70
48604;DHT22;32708;51.212;6.788;2023-04-05T00:43:39;6.10;1.00
48604;DHT22;32708;51.212;6.788;2023-04-05T00:46:07;6.10;1.00
48604;DHT22;32708;51.212;6.788;2023-04-05T00:48:34;5.90;99.90
48604;DHT22;32708;51.212;6.788;2023-04-05T00:51:00;6.00;99.90
48604;DHT22;32708;51.212;6.788;2023-04-05T00:53:27;6.00;1.00
48604;DHT22;32708;51.212;6.788;2023-04-05T00:55:54;6.00;1.00
48604;DHT22;32708;51.212;6.788;2023-04-05T00:58:21;5.90;1.00
48604;DHT22;32708;51.212;6.788;2023-04-05T01:01:09;6.20;80.00
48604;DHT22;32708;51.212;6.788;2023-04-05T01:03:44;6.10;99.90
48604;DHT22;32708;51.212;6.788;2023-04-05T01:11:25;5.60;1.00
48604;DHT22;32708;51.212;6.788;2023-04-05T01:13:58;6.00;98.10
48604;DHT22;32708;51.212;6.788;2023-04-05T01:16:24;5.90;99.90
48604;DHT22;32708;51.212;6.788;2023-04-05T01:18:52;5.80;99.90
48604;DHT22;32708;51.212;6.788;2023-04-05T01:29:38;5.60;99.90
48604;DHT22;32708;51.212;6.788;2023-04-05T01:37:34;5.70;99.90
48604;DHT22;32708;51.212;6.788;2023-04-05T01:40:00;5.30;41.30
48604;DHT22;32708;51.212;6.788;2023-04-05T01:42:29;5.40;52.50
48604;DHT22;32708;51.212;6.788;2023-04-05T01:44:56;5.40;1.00
48604;DHT22;32708;51.212;6.788;2023-04-05T01:47:23;5.80;5.90
48604;DHT22;32708;51.212;6.788;2023-04-05T01:49:49;5.40;99.90
48604;DHT22;32708;51.212;6.788;2023-04-05T01:52:15;5.70;99.90
48604;DHT22;32708;51.212;6.788;2023-04-05T01:54:42;5.30;62.50
48604;DHT22;32708;51.212;6.788;2023-04-05T01:57:08;5.30;99.90
48604;DHT22;32708;51.212;6.788;2023-04-05T01:59:34;5.40;99.90
48604;DHT22;32708;51.212;6.788;2023-04-05T02:02:01;5.40;1.00
48604;DHT22;32708;51.212;6.788;2023-04-05T02:04:27;5.30;99.90
48604;DHT22;32708;51.212;6.788;2023-04-05T02:06:53;5.30;99.90
48604;DHT22;32708;51.212;6.788;2023-04-05T02:09:19;5.40;99.90
48604;DHT22;32708;51.212;6.788;2023-04-05T02:11:45;5.20;1.00
48604;DHT22;32708;51.212;6.788;2023-04-05T02:14:11;5.20;99.90
48604;DHT22;32708;51.212;6.788;2023-04-05T02:16:38;5.50;99.90
48604;DHT22;32708;51.212;6.788;2023-04-05T02:19:04;4.90;99.90
48604;DHT22;32708;51.212;6.788;2023-04-05T02:21:30;4.90;1.00
48604;DHT22;32708;51.212;6.788;2023-04-05T02:23:56;4.80;1.00
48604;DHT22;32708;51.212;6.788;2023-04-05T02:26:22;4.80;10.10
48604;DHT22;32708;51.212;6.788;2023-04-05T02:28:49;4.90;1.00
48604;DHT22;32708;51.212;6.788;2023-04-05T02:31:15;4.70;65.30
48604;DHT22;32708;51.212;6.788;2023-04-05T02:33:41;4.70;99.90
48604;DHT22;32708;51.212;6.788;2023-04-05T02:36:10;4.70;99.90
48604;DHT22;32708;51.212;6.788;2023-04-05T02:38:36;4.60;99.90
48604;DHT22;32708;51.212;6.788;2023-04-05T02:41:02;4.60;99.90
48604;DHT22;32708;51.212;6.788;2023-04-05T02:43:29;4.70;99.90
48604;DHT22;32708;51.212;6.788;2023-04-05T02:45:55;4.80;99.90
48604;DHT22;32708;51.212;6.788;2023-04-05T02:48:23;4.60;99.90
48604;DHT22;32708;51.212;6.788;2023-04-05T02:50:50;4.60;99.90
48604;DHT22;32708;51.212;6.788;2023-04-05T02:53:17;4.60;99.90
48604;DHT22;32708;51.212;6.788;2023-04-05T02:55:55;4.60;99.90
48604;DHT22;32708;51.212;6.788;2023-04-05T02:58:23;4.60;99.90
48604;DHT22;32708;51.212;6.788;2023-04-05T03:00:51;4.50;99.90
48604;DHT22;32708;51.212;6.788;2023-04-05T03:03:23;4.30;99.90
48604;DHT22;32708;51.212;6.788;2023-04-05T03:05:58;4.30;99.90
48604;DHT22;32708;51.212;6.788;2023-04-05T03:08:27;4.70;99.90
48604;DHT22;32708;51.212;6.788;2023-04-05T03:11:02;4.40;99.90
48604;DHT22;32708;51.212;6.788;2023-04-05T03:13:28;4.40;99.90
48604;DHT22;32708;51.212;6.788;2023-04-05T03:15:56;4.40;99.90
48604;DHT22;32708;51.212;6.788;2023-04-05T03:18:24;4.50;99.90
48604;DHT22;32708;51.212;6.788;2023-04-05T03:20:52;4.50;99.90
48604;DHT22;32708;51.212;6.788;2023-04-05T03:23:30;4.60;99.90
48604;DHT22;32708;51.212;6.788;2023-04-05T03:26:02;4.70;99.90
48604;DHT22;32708;51.212;6.788;2023-04-05T03:28:33;4.60;99.90
48604;DHT22;32708;51.212;6.788;2023-04-05T03:31:02;4.50;99.90
48604;DHT22;32708;51.212;6.788;2023-04-05T03:33:29;4.30;99.90
48604;DHT22;32708;51.212;6.788;2023-04-05T03:35:55;4.40;99.90
48604;DHT22;32708;51.212;6.788;2023-04-05T03:38:21;4.40;99.90
48604;DHT22;32708;51.212;6.788;2023-04-05T03:41:06;4.40;99.90
48604;DHT22;32708;51.212;6.788;2023-04-05T03:43:32;4.40;99.90
48604;DHT22;32708;51.212;6.788;2023-04-05T03:45:58;4.40;99.90
48604;DHT22;32708;51.212;6.788;2023-04-05T03:48:27;4.70;99.90
48604;DHT22;32708;51.212;6.788;2023-04-05T03:50:53;4.40;99.90
48604;DHT22;32708;51.212;6.788;2023-04-05T03:53:19;4.40;99.90
48604;DHT22;32708;51.212;6.788;2023-04-05T03:55:49;4.70;99.90
48604;DHT22;32708;51.212;6.788;2023-04-05T03:58:22;4.40;99.90
48604;DHT22;32708;51.212;6.788;2023-04-05T04:00:48;4.40;99.90
48604;DHT22;32708;51.212;6.788;2023-04-05T04:03:21;4.40;99.90
48604;DHT22;32708;51.212;6.788;2023-04-05T04:05:50;4.30;99.90
48604;DHT22;32708;51.212;6.788;2023-04-05T04:08:17;4.40;99.90
48604;DHT22;32708;51.212;6.788;2023-04-05T04:10:43;4.60;99.90
48604;DHT22;32708;51.212;6.788;2023-04-05T04:13:30;4.30;99.90
48604;DHT22;32708;51.212;6.788;2023-04-05T04:16:28;4.20;99.90
48604;DHT22;32708;51.212;6.788;2023-04-05T04:19:06;4.30;99.90
48604;DHT22;32708;51.212;6.788;2023-04-05T04:21:52;4.20;99.90
48604;DHT22;32708;51.212;6.788;2023-04-05T04:24:43;4.30;99.90
48604;DHT22;32708;51.212;6.788;2023-04-05T04:27:32;4.30;99.90
48604;DHT22;32708;51.212;6.788;2023-04-05T04:30:12;4.10;99.90
48604;DHT22;32708;51.212;6.788;2023-04-05T04:33:01;4.20;99.90
48604;DHT22;32708;51.212;6.788;2023-04-05T04:35:36;4.10;99.90
48604;DHT22;32708;51.212;6.788;2023-04-05T04:38:30;4.00;1.00
48604;DHT22;32708;51.212;6.788;2023-04-05T04:40:59;4.00;1.00
48604;DHT22;32708;51.212;6.788;2023-04-05T04:43:35;4.00;1.00
48604;DHT22;32708;51.212;6.788;2023-04-05T04:46:25;4.00;1.00
48604;DHT22;32708;51.212;6.788;2023-04-05T04:49:09;3.90;1.00
48604;DHT22;32708;51.212;6.788;2023-04-05T04:51:39;4.00;1.00
48604;DHT22;32708;51.212;6.788;2023-04-05T04:54:05;4.10;1.00
48604;DHT22;32708;51.212;6.788;2023-04-05T04:56:32;4.20;99.90
48604;DHT22;32708;51.212;6.788;2023-04-05T04:58:59;3.90;1.00
48604;DHT22;32708;51.212;6.788;2023-04-05T05:01:25;4.00;1.00
48604;DHT22;32708;51.212;6.788;2023-04-05T05:03:51;4.10;99.90
48604;DHT22;32708;51.212;6.788;2023-04-05T05:06:22;4.00;99.90
48604;DHT22;32708;51.212;6.788;2023-04-05T05:08:48;4.00;99.90
48604;DHT22;32708;51.212;6.788;2023-04-05T05:11:15;3.90;99.90
48604;DHT22;32708;51.212;6.788;2023-04-05T05:13:41;4.00;99.90
48604;DHT22;32708;51.212;6.788;2023-04-05T05:16:08;4.10;99.90
48604;DHT22;32708;51.212;6.788;2023-04-05T05:18:34;4.00;99.90
48604;DHT22;32708;51.212;6.788;2023-04-05T05:21:01;4.20;99.90
48604;DHT22;32708;51.212;6.788;2023-04-05T05:23:27;4.40;99.90
48604;DHT22;32708;51.212;6.788;2023-04-05T05:25:59;4.10;99.90
48604;DHT22;32708;51.212;6.788;2023-04-05T05:28:26;4.10;99.90
48604;DHT22;32708;51.212;6.788;2023-04-05T05:30:52;4.20;99.90
48604;DHT22;32708;51.212;6.788;2023-04-05T05:33:18;4.70;99.90
48604;DHT22;32708;51.212;6.788;2023-04-05T05:35:48;4.40;99.90
48604;DHT22;32708;51.212;6.788;2023-04-05T05:38:19;4.40;99.90
48604;DHT22;32708;51.212;6.788;2023-04-05T05:40:45;4.50;99.90
48604;DHT22;32708;51.212;6.788;2023-04-05T05:43:11;5.00;99.90
48604;DHT22;32708;51.212;6.788;2023-04-05T05:45:37;5.00;99.90
48604;DHT22;32708;51.212;6.788;2023-04-05T05:48:04;5.00;99.90
48604;DHT22;32708;51.212;6.788;2023-04-05T05:50:31;5.20;99.60
48604;DHT22;32708;51.212;6.788;2023-04-05T05:53:00;5.50;1.00
48604;DHT22;32708;51.212;6.788;2023-04-05T05:55:27;6.00;1.00
48604;DHT22;32708;51.212;6.788;2023-04-05T05:57:53;5.80;99.90
48604;DHT22;32708;51.212;6.788;2023-04-05T06:00:19;5.90;84.50
48604;DHT22;32708;51.212;6.788;2023-04-05T06:02:46;6.20;7.20
48604;DHT22;32708;51.212;6.788;2023-04-05T06:05:12;6.50;1.00
48604;DHT22;32708;51.212;6.788;2023-04-05T06:07:39;6.80;90.20
48604;DHT22;32708;51.212;6.788;2023-04-05T06:10:06;6.90;1.00
48604;DHT22;32708;51.212;6.788;2023-04-05T06:12:33;7.10;1.00
48604;DHT22;32708;51.212;6.788;2023-04-05T06:15:00;7.30;99.90
48604;DHT22;32708;51.212;6.788;2023-04-05T06:17:27;7.10;99.90
48604;DHT22;32708;51.212;6.788;2023-04-05T06:19:53;7.50;99.90
48604;DHT22;32708;51.212;6.788;2023-04-05T06:22:19;7.30;99.90
48604;DHT22;32708;51.212;6.788;2023-04-05T06:24:46;7.80;99.90
48604;DHT22;32708;51.212;6.788;2023-04-05T06:27:12;8.50;96.70
48604;DHT22;32708;51.212;6.788;2023-04-05T06:29:40;8.30;29.60
48604;DHT22;32708;51.212;6.788;2023-04-05T06:32:06;8.40;59.10
48604;DHT22;32708;51.212;6.788;2023-04-05T06:34:32;8.70;1.00
48604;DHT22;32708;51.212;6.788;2023-04-05T06:36:58;9.30;1.00
48604;DHT22;32708;51.212;6.788;2023-04-05T06:39:24;9.30;1.00
48604;DHT22;32708;51.212;6.788;2023-04-05T06:41:51;8.90;1.00
48604;DHT22;32708;51.212;6.788;2023-04-05T06:44:24;9.50;1.00
48604;DHT22;32708;51.212;6.788;2023-04-05T06:46:49;9.60;1.00
48604;DHT22;32708;51.212;6.788;2023-04-05T06:49:15;9.60;99.90
48604;DHT22;32708;51.212;6.788;2023-04-05T06:51:58;9.30;99.90
48604;DHT22;32708;51.212;6.788;2023-04-05T06:54:50;9.40;99.90
48604;DHT22;32708;51.212;6.788;2023-04-05T06:57:29;10.20;99.90
48604;DHT22;32708;51.212;6.788;2023-04-05T06:59:59;9.70;99.90
48604;DHT22;32708;51.212;6.788;2023-04-05T07:02:59;8.80;99.90
48604;DHT22;32708;51.212;6.788;2023-04-05T07:05:55;9.20;99.90
48604;DHT22;32708;51.212;6.788;2023-04-05T07:08:29;8.40;99.90
48604;DHT22;32708;51.212;6.788;2023-04-05T07:11:25;9.70;99.90
48604;DHT22;32708;51.212;6.788;2023-04-05T07:13:55;10.50;99.90
48604;DHT22;32708;51.212;6.788;2023-04-05T07:16:25;9.90;99.90
48604;DHT22;32708;51.212;6.788;2023-04-05T07:19:02;10.20;99.90
48604;DHT22;32708;51.212;6.788;2023-04-05T07:21:31;10.20;99.90
48604;DHT22;32708;51.212;6.788;2023-04-05T07:24:02;10.80;99.90
48604;DHT22;32708;51.212;6.788;2023-04-05T07:26:45;10.50;99.90
48604;DHT22;32708;51.212;6.788;2023-04-05T07:29:11;10.50;99.90
48604;DHT22;32708;51.212;6.788;2023-04-05T07:31:39;10.80;99.90
48604;DHT22;32708;51.212;6.788;2023-04-05T07:34:05;11.50;99.90
48604;DHT22;32708;51.212;6.788;2023-04-05T07:36:35;11.90;99.90
48604;DHT22;32708;51.212;6.788;2023-04-05T07:39:01;12.00;99.90
48604;DHT22;32708;51.212;6.788;2023-04-05T07:41:28;12.00;99.90
48604;DHT22;32708;51.212;6.788;2023-04-05T07:43:58;11.80;99.90
48604;DHT22;32708;51.212;6.788;2023-04-05T07:46:24;11.70;99.90
48604;DHT22;32708;51.212;6.788;2023-04-05T07:48:52;11.90;99.90
48604;DHT22;32708;51.212;6.788;2023-04-05T07:51:18;12.20;99.90
48604;DHT22;32708;51.212;6.788;2023-04-05T07:53:44;12.30;99.90
48604;DHT22;32708;51.212;6.788;2023-04-05T07:56:11;12.00;99.90
48604;DHT22;32708;51.212;6.788;2023-04-05T09:37:32;12.60;99.90
48604;DHT22;32708;51.212;6.788;2023-04-05T09:40:04;12.50;99.90
48604;DHT22;32708;51.212;6.788;2023-04-05T09:42:43;12.50;99.90
48604;DHT22;32708;51.212;6.788;2023-04-05T09:45:15;12.70;99.90
48604;DHT22;32708;51.212;6.788;2023-04-05T09:47:56;13.20;99.90
48604;DHT22;32708;51.212;6.788;2023-04-05T09:50:22;13.80;99.90
48604;DHT22;32708;51.212;6.788;2023-04-05T09:53:08;12.60;99.90
48604;DHT22;32708;51.212;6.788;2023-04-05T09:55:41;13.00;99.90
48604;DHT22;32708;51.212;6.788;2023-04-05T09:58:31;13.70;99.90
48604;DHT22;32708;51.212;6.788;2023-04-05T10:00:57;13.80;99.90
48604;DHT22;32708;51.212;6.788;2023-04-05T10:03:29;14.20;99.90
48604;DHT22;32708;51.212;6.788;2023-04-05T10:05:55;14.80;99.90
48604;DHT22;32708;51.212;6.788;2023-04-05T10:08:22;13.70;99.90
48604;DHT22;32708;51.212;6.788;2023-04-05T10:10:52;13.50;99.90
48604;DHT22;32708;51.212;6.788;2023-04-05T10:13:19;13.80;99.90
48604;DHT22;32708;51.212;6.788;2023-04-05T10:15:48;13.90;99.90
48604;DHT22;32708;51.212;6.788;2023-04-05T10:18:24;13.10;99.90
48604;DHT22;32708;51.212;6.788;2023-04-05T10:20:57;13.70;99.90
48604;DHT22;32708;51.212;6.788;2023-04-05T10:23:31;13.90;99.90
48604;DHT22;32708;51.212;6.788;2023-04-05T10:26:11;13.60;99.90
48604;DHT22;32708;51.212;6.788;2023-04-05T10:28:59;13.40;99.90
48604;DHT22;32708;51.212;6.788;2023-04-05T10:31:44;13.00;99.90
48604;DHT22;32708;51.212;6.788;2023-04-05T10:34:41;13.50;99.90
48604;DHT22;32708;51.212;6.788;2023-04-05T10:37:29;14.80;99.90
48604;DHT22;32708;51.212;6.788;2023-04-05T10:40:13;14.40;99.90
48604;DHT22;32708;51.212;6.788;2023-04-05T10:42:45;13.90;99.90
48604;DHT22;32708;51.212;6.788;2023-04-05T10:45:17;13.50;99.30
48604;DHT22;32708;51.212;6.788;2023-04-05T10:48:01;13.50;99.90
48604;DHT22;32708;51.212;6.788;2023-04-05T10:50:38;13.30;99.90
48604;DHT22;32708;51.212;6.788;2023-04-05T10:53:07;14.40;99.90
48604;DHT22;32708;51.212;6.788;2023-04-05T10:55:34;14.90;99.90
48604;DHT22;32708;51.212;6.788;2023-04-05T10:58:02;14.50;96.20
48604;DHT22;32708;51.212;6.788;2023-04-05T11:00:29;14.00;95.70
48604;DHT22;32708;51.212;6.788;2023-04-05T11:02:56;13.80;95.10
48604;DHT22;32708;51.212;6.788;2023-04-05T11:05:30;13.90;95.30
48604;DHT22;32708;51.212;6.788;2023-04-05T11:08:03;14.60;99.90
48604;DHT22;32708;51.212;6.788;2023-04-05T11:10:35;14.70;97.60
48604;DHT22;32708;51.212;6.788;2023-04-05T11:13:05;14.90;94.90
48604;DHT22;32708;51.212;6.788;2023-04-05T11:15:34;15.00;93.70
48604;DHT22;32708;51.212;6.788;2023-04-05T11:20:49;14.20;94.50
48604;DHT22;32708;51.212;6.788;2023-04-05T11:23:22;14.40;94.80
48604;DHT22;32708;51.212;6.788;2023-04-05T11:25:55;14.40;98.00
48604;DHT22;32708;51.212;6.788;2023-04-05T11:28:36;15.00;93.10
48604;DHT22;32708;51.212;6.788;2023-04-05T11:31:18;14.40;94.70
48604;DHT22;32708;51.212;6.788;2023-04-05T11:36:38;14.90;90.40
48604;DHT22;32708;51.212;6.788;2023-04-05T11:42:02;15.00;90.70
48604;DHT22;32708;51.212;6.788;2023-04-05T11:44:45;14.80;88.30
48604;DHT22;32708;51.212;6.788;2023-04-05T11:47:16;14.80;92.70
48604;DHT22;32708;51.212;6.788;2023-04-05T11:49:49;15.50;91.00
48604;DHT22;32708;51.212;6.788;2023-04-05T11:52:18;15.10;89.20
48604;DHT22;32708;51.212;6.788;2023-04-05T11:54:46;15.20;88.80
48604;DHT22;32708;51.212;6.788;2023-04-05T11:57:18;14.90;89.20
48604;DHT22;32708;51.212;6.788;2023-04-05T11:59:49;15.00;87.60
48604;DHT22;32708;51.212;6.788;2023-04-05T12:02:17;15.20;86.40
48604;DHT22;32708;51.212;6.788;2023-04-05T12:04:52;14.80;88.00
48604;DHT22;32708;51.212;6.788;2023-04-05T12:07:25;14.80;85.30
48604;DHT22;32708;51.212;6.788;2023-04-05T12:10:09;14.80;85.10
48604;DHT22;32708;51.212;6.788;2023-04-05T12:12:42;14.40;85.40
48604;DHT22;32708;51.212;6.788;2023-04-05T12:15:11;14.60;84.40
48604;DHT22;32708;51.212;6.788;2023-04-05T12:20:23;14.80;84.50
48604;DHT22;32708;51.212;6.788;2023-04-05T12:22:52;14.60;79.40
48604;DHT22;32708;51.212;6.788;2023-04-05T12:25:20;14.60;81.30
48604;DHT22;32708;51.212;6.788;2023-04-05T12:27:48;14.40;80.20
48604;DHT22;32708;51.212;6.788;2023-04-05T12:32:52;14.00;77.70
48604;DHT22;32708;51.212;6.788;2023-04-05T12:35:26;13.80;79.60
48604;DHT22;32708;51.212;6.788;2023-04-05T12:37:58;13.20;75.20
48604;DHT22;32708;51.212;6.788;2023-04-05T12:40:26;13.20;76.40
48604;DHT22;32708;51.212;6.788;2023-04-05T12:43:01;12.50;74.60
48604;DHT22;32708;51.212;6.788;2023-04-05T12:45:28;12.80;81.40
48604;DHT22;32708;51.212;6.788;2023-04-05T12:47:58;12.70;88.00
48604;DHT22;32708;51.212;6.788;2023-04-05T12:50:29;12.90;86.20
48604;DHT22;32708;51.212;6.788;2023-04-05T12:52:58;12.50;83.90
48604;DHT22;32708;51.212;6.788;2023-04-05T12:55:27;12.50;82.80
48604;DHT22;32708;51.212;6.788;2023-04-05T12:57:57;12.40;83.30
48604;DHT22;32708;51.212;6.788;2023-04-05T13:00:27;12.10;84.30
48604;DHT22;32708;51.212;6.788;2023-04-05T13:02:57;12.00;85.20
48604;DHT22;32708;51.212;6.788;2023-04-05T13:05:27;11.70;92.90
48604;DHT22;32708;51.212;6.788;2023-04-05T13:07:54;11.30;87.60
48604;DHT22;32708;51.212;6.788;2023-04-05T13:10:22;11.80;88.70
48604;DHT22;32708;51.212;6.788;2023-04-05T13:12:49;11.90;87.60
48604;DHT22;32708;51.212;6.788;2023-04-05T13:15:16;12.10;85.90
48604;DHT22;32708;51.212;6.788;2023-04-05T13:17:44;12.10;90.50
48604;DHT22;32708;51.212;6.788;2023-04-05T13:20:15;12.20;91.10
48604;DHT22;32708;51.212;6.788;2023-04-05T13:22:45;12.60;90.50
48604;DHT22;32708;51.212;6.788;2023-04-05T13:25:15;12.60;91.20
48604;DHT22;32708;51.212;6.788;2023-04-05T13:27:42;12.70;90.90
48604;DHT22;32708;51.212;6.788;2023-04-05T13:30:09;12.50;90.70
48604;DHT22;32708;51.212;6.788;2023-04-05T13:32:35;12.50;90.40
48604;DHT22;32708;51.212;6.788;2023-04-05T13:35:02;12.50;91.10
48604;DHT22;32708;51.212;6.788;2023-04-05T13:37:28;12.60;87.80
48604;DHT22;32708;51.212;6.788;2023-04-05T13:39:54;12.10;87.60
48604;DHT22;32708;51.212;6.788;2023-04-05T13:42:22;12.50;88.40
48604;DHT22;32708;51.212;6.788;2023-04-05T13:44:48;12.70;89.50
48604;DHT22;32708;51.212;6.788;2023-04-05T13:47:15;12.60;85.30
48604;DHT22;32708;51.212;6.788;2023-04-05T13:49:42;12.50;81.70
48604;DHT22;32708;51.212;6.788;2023-04-05T13:52:11;12.80;86.30
48604;DHT22;32708;51.212;6.788;2023-04-05T13:54:37;13.00;87.40
48604;DHT22;32708;51.212;6.788;2023-04-05T13:57:03;12.80;85.40
48604;DHT22;32708;51.212;6.788;2023-04-05T13:59:30;12.80;86.50
48604;DHT22;32708;51.212;6.788;2023-04-05T14:01:56;12.70;82.60
48604;DHT22;32708;51.212;6.788;2023-04-05T14:04:23;12.50;83.30
48604;DHT22;32708;51.212;6.788;2023-04-05T14:06:49;12.80;81.60
48604;DHT22;32708;51.212;6.788;2023-04-05T14:09:18;13.00;79.40
48604;DHT22;32708;51.212;6.788;2023-04-05T14:11:45;12.50;80.00
48604;DHT22;32708;51.212;6.788;2023-04-05T14:14:11;12.30;91.30
48604;DHT22;32708;51.212;6.788;2023-04-05T14:16:37;12.30;80.90
48604;DHT22;32708;51.212;6.788;2023-04-05T14:19:03;12.30;81.50
48604;DHT22;32708;51.212;6.788;2023-04-05T14:21:30;12.40;81.10
48604;DHT22;32708;51.212;6.788;2023-04-05T14:23:56;12.40;82.30
48604;DHT22;32708;51.212;6.788;2023-04-05T14:26:23;12.50;85.10
48604;DHT22;32708;51.212;6.788;2023-04-05T14:28:51;12.70;81.80
48604;DHT22;32708;51.212;6.788;2023-04-05T14:31:18;12.50;81.20
48604;DHT22;32708;51.212;6.788;2023-04-05T14:33:44;12.70;81.60
48604;DHT22;32708;51.212;6.788;2023-04-05T14:36:11;12.80;82.20
48604;DHT22;32708;51.212;6.788;2023-04-05T14:38:37;12.80;82.70
48604;DHT22;32708;51.212;6.788;2023-04-05T14:41:04;12.80;79.70
48604;DHT22;32708;51.212;6.788;2023-04-05T14:43:31;12.90;79.00
48604;DHT22;32708;51.212;6.788;2023-04-05T14:45:57;12.60;79.10
48604;DHT22;32708;51.212;6.788;2023-04-05T14:48:23;12.80;80.40
48604;DHT22;32708;51.212;6.788;2023-04-05T14:50:50;12.60;79.30
48604;DHT22;32708;51.212;6.788;2023-04-05T14:53:16;12.80;78.10
48604;DHT22;32708;51.212;6.788;2023-04-05T14:55:43;12.50;77.60
48604;DHT22;32708;51.212;6.788;2023-04-05T14:58:09;12.50;79.10
48604;DHT22;32708;51.212;6.788;2023-04-05T15:00:35;12.50;79.10
48604;DHT22;32708;51.212;6.788;2023-04-05T15:03:01;12.70;77.90
48604;DHT22;32708;51.212;6.788;2023-04-05T15:05:28;12.80;78.50
48604;DHT22;32708;51.212;6.788;2023-04-05T15:07:54;12.80;78.20
48604;DHT22;32708;51.212;6.788;2023-04-05T15:10:21;12.70;76.90
48604;DHT22;32708;51.212;6.788;2023-04-05T15:12:47;12.60;78.50
48604;DHT22;32708;51.212;6.788;2023-04-05T15:15:15;12.50;76.60
48604;DHT22;32708;51.212;6.788;2023-04-05T15:17:41;12.60;76.60
48604;DHT22;32708;51.212;6.788;2023-04-05T15:20:08;12.60;78.90
48604;DHT22;32708;51.212;6.788;2023-04-05T15:22:35;12.60;74.70
48604;DHT22;32708;51.212;6.788;2023-04-05T15:25:01;12.60;71.80
48604;DHT22;32708;51.212;6.788;2023-04-05T15:27:27;12.50;70.80
48604;DHT22;32708;51.212;6.788;2023-04-05T15:29:54;12.50;70.20
48604;DHT22;32708;51.212;6.788;2023-04-05T15:32:20;12.70;70.60
48604;DHT22;32708;51.212;6.788;2023-04-05T15:34:46;12.60;70.20
48604;DHT22;32708;51.212;6.788;2023-04-05T15:37:12;12.60;69.70
48604;DHT22;32708;51.212;6.788;2023-04-05T15:39:38;12.50;67.20
48604;DHT22;32708;51.212;6.788;2023-04-05T15:42:05;12.40;66.40
48604;DHT22;32708;51.212;6.788;2023-04-05T15:44:31;12.30;66.80
48604;DHT22;32708;51.212;6.788;2023-04-05T15:46:57;12.30;68.70
48604;DHT22;32708;51.212;6.788;2023-04-05T15:49:23;12.20;67.70
48604;DHT22;32708;51.212;6.788;2023-04-05T15:51:50;12.20;70.80
48604;DHT22;32708;51.212;6.788;2023-04-05T15:54:16;12.40;70.50
48604;DHT22;32708;51.212;6.788;2023-04-05T15:56:46;12.40;67.30
48604;DHT22;32708;51.212;6.788;2023-04-05T15:59:13;12.40;77.90
48604;DHT22;32708;51.212;6.788;2023-04-05T16:01:39;12.40;66.00
48604;DHT22;32708;51.212;6.788;2023-04-05T16:04:06;12.30;64.00
48604;DHT22;32708;51.212;6.788;2023-04-05T16:06:32;12.30;63.20
48604;DHT22;32708;51.212;6.788;2023-04-05T16:08:58;12.00;63.70
48604;DHT22;32708;51.212;6.788;2023-04-05T16:11:25;12.10;64.00
48604;DHT22;32708;51.212;6.788;2023-04-05T16:13:52;12.20;65.90
48604;DHT22;32708;51.212;6.788;2023-04-05T16:16:19;12.20;63.50
48604;DHT22;32708;51.212;6.788;2023-04-05T16:18:46;12.30;64.10
48604;DHT22;32708;51.212;6.788;2023-04-05T16:21:12;12.30;63.60
48604;DHT22;32708;51.212;6.788;2023-04-05T16:23:40;12.10;64.20
48604;DHT22;32708;51.212;6.788;2023-04-05T16:26:06;12.10;65.00
48604;DHT22;32708;51.212;6.788;2023-04-05T16:28:32;12.10;62.00
48604;DHT22;32708;51.212;6.788;2023-04-05T16:30:59;12.00;60.10
48604;DHT22;32708;51.212;6.788;2023-04-05T16:33:25;12.10;62.60
48604;DHT22;32708;51.212;6.788;2023-04-05T16:35:52;12.10;62.00
48604;DHT22;32708;51.212;6.788;2023-04-05T16:38:18;11.90;60.00
48604;DHT22;32708;51.212;6.788;2023-04-05T16:40:44;11.80;60.00
48604;DHT22;32708;51.212;6.788;2023-04-05T16:43:10;12.00;60.50
48604;DHT22;32708;51.212;6.788;2023-04-05T16:45:37;12.00;62.20
48604;DHT22;32708;51.212;6.788;2023-04-05T16:48:03;12.00;61.50
48604;DHT22;32708;51.212;6.788;2023-04-05T16:50:30;12.00;63.40
48604;DHT22;32708;51.212;6.788;2023-04-05T16:52:56;11.90;63.10
48604;DHT22;32708;51.212;6.788;2023-04-05T16:55:22;11.90;62.40
48604;DHT22;32708;51.212;6.788;2023-04-05T16:57:49;11.90;61.30
48604;DHT22;32708;51.212;6.788;2023-04-05T17:00:15;11.80;63.50
48604;DHT22;32708;51.212;6.788;2023-04-05T17:02:41;11.80;64.40
48604;DHT22;32708;51.212;6.788;2023-04-05T17:05:08;11.70;64.80
48604;DHT22;32708;51.212;6.788;2023-04-05T17:07:34;11.80;66.30
48604;DHT22;32708;51.212;6.788;2023-04-05T17:10:00;12.00;64.10
48604;DHT22;32708;51.212;6.788;2023-04-05T17:12:27;11.80;65.00
48604;DHT22;32708;51.212;6.788;2023-04-05T17:14:53;11.80;66.80
48604;DHT22;32708;51.212;6.788;2023-04-05T17:17:20;11.70;67.30
48604;DHT22;32708;51.212;6.788;2023-04-05T17:19:46;11.70;70.50
48604;DHT22;32708;51.212;6.788;2023-04-05T17:22:12;11.70;72.70
48604;DHT22;32708;51.212;6.788;2023-04-05T17:24:39;11.70;77.50
48604;DHT22;32708;51.212;6.788;2023-04-05T17:27:05;11.50;72.80
48604;DHT22;32708;51.212;6.788;2023-04-05T17:29:32;11.60;76.90
48604;DHT22;32708;51.212;6.788;2023-04-05T17:31:58;11.50;77.40
48604;DHT22;32708;51.212;6.788;2023-04-05T17:34:24;11.60;79.60
48604;DHT22;32708;51.212;6.788;2023-04-05T17:36:51;11.50;78.70
48604;DHT22;32708;51.212;6.788;2023-04-05T17:39:17;11.50;79.40
48604;DHT22;32708;51.212;6.788;2023-04-05T17:41:44;11.50;79.30
48604;DHT22;32708;51.212;6.788;2023-04-05T17:44:11;11.40;80.80
48604;DHT22;32708;51.212;6.788;2023-04-05T17:46:41;11.30;81.00
48604;DHT22;32708;51.212;6.788;2023-04-05T17:49:08;11.40;84.40
48604;DHT22;32708;51.212;6.788;2023-04-05T17:51:34;11.40;87.30
48604;DHT22;32708;51.212;6.788;2023-04-05T17:54:00;11.20;90.10
48604;DHT22;32708;51.212;6.788;2023-04-05T17:56:27;11.10;93.50
48604;DHT22;32708;51.212;6.788;2023-04-05T17:58:53;11.20;92.20
48604;DHT22;32708;51.212;6.788;2023-04-05T18:01:19;11.10;93.30
48604;DHT22;32708;51.212;6.788;2023-04-05T18:03:46;11.00;93.20
48604;DHT22;32708;51.212;6.788;2023-04-05T18:06:12;11.00;95.20